Time;durP1;ratioP1;P1;durP2;ratioP2;P2;SDS_P1;SDS_P2;PMS_P1;PMS_P2;Temp;Humidity;BMP_temperature;BMP_pressure;BME280_temperature;BME280_humidity;BME280_pressure;Samples;Min_cycle;Max_cycle;Signal;HPM_P1;HPM_P2
2023/05/06 00:02:07;;;;;;;;;;;14.80;99.90;;;;;;5011682;28;20032;-79
2023/05/06 00:04:34;;;;;;;;;;;14.80;99.90;;;;;;4991892;28;19968;-79
2023/05/06 00:07:01;;;;;;;;;;;14.70;99.90;;;;;;5012809;28;20403;-78
2023/05/06 00:09:32;;;;;;;;;;;14.70;99.90;;;;;;5006973;28;19964;-80
2023/05/06 00:11:59;;;;;;;;;;;14.70;99.90;;;;;;5013807;28;19976;-80
2023/05/06 00:14:25;;;;;;;;;;;14.70;99.90;;;;;;5012703;28;19925;-78
2023/05/06 00:16:54;;;;;;;;;;;14.70;99.90;;;;;;4991365;28;19980;-79
2023/05/06 00:19:21;;;;;;;;;;;14.70;99.90;;;;;;5007961;28;19925;-80
2023/05/06 00:21:48;;;;;;;;;;;14.70;99.90;;;;;;5009866;28;19933;-80
2023/05/06 00:24:15;;;;;;;;;;;14.70;99.90;;;;;;5009349;28;19926;-79
2023/05/06 00:26:46;;;;;;;;;;;14.60;99.90;;;;;;5077507;22;19937;-77
2023/05/06 00:29:12;;;;;;;;;;;14.60;99.90;;;;;;5029250;28;20371;-78
2023/05/06 00:31:41;;;;;;;;;;;14.60;99.90;;;;;;5013376;28;20450;-77
2023/05/06 00:34:07;;;;;;;;;;;14.60;99.90;;;;;;5008936;28;19979;-77
2023/05/06 00:36:35;;;;;;;;;;;14.60;99.90;;;;;;5026385;28;19933;-77
2023/05/06 00:39:02;;;;;;;;;;;14.60;99.90;;;;;;5026111;28;19932;-77
2023/05/06 00:41:30;;;;;;;;;;;14.60;99.90;;;;;;5009993;28;19937;-77
2023/05/06 00:43:59;;;;;;;;;;;14.60;99.90;;;;;;5025205;28;20019;-77
2023/05/06 00:46:26;;;;;;;;;;;14.60;99.90;;;;;;5009671;28;19940;-78
2023/05/06 00:48:54;;;;;;;;;;;14.60;99.90;;;;;;5010482;28;19983;-77
2023/05/06 00:51:21;;;;;;;;;;;14.50;99.90;;;;;;5024930;28;20461;-76
2023/05/06 00:53:48;;;;;;;;;;;14.50;99.90;;;;;;5024313;28;19925;-76
2023/05/06 00:56:16;;;;;;;;;;;14.50;99.90;;;;;;5012701;28;19925;-76
2023/05/06 00:58:43;;;;;;;;;;;14.50;99.90;;;;;;5029398;28;19959;-76
2023/05/06 01:01:12;;;;;;;;;;;14.50;99.90;;;;;;5023854;28;19925;-76
2023/05/06 01:03:39;;;;;;;;;;;14.50;99.90;;;;;;5031787;28;20449;-76
2023/05/06 01:06:12;;;;;;;;;;;14.40;99.90;;;;;;5011852;28;19940;-76
2023/05/06 01:08:42;;;;;;;;;;;14.40;99.90;;;;;;5012636;28;19925;-76
2023/05/06 01:11:12;;;;;;;;;;;14.40;99.90;;;;;;5016976;28;19929;-76
2023/05/06 01:13:42;;;;;;;;;;;14.50;99.90;;;;;;5027267;28;19933;-76
2023/05/06 01:16:10;;;;;;;;;;;14.40;99.90;;;;;;5013642;28;20311;-76
2023/05/06 01:18:38;;;;;;;;;;;14.40;99.90;;;;;;5031728;28;20460;-76
2023/05/06 01:21:07;;;;;;;;;;;14.40;99.90;;;;;;5019145;28;20318;-76
2023/05/06 01:23:49;;;;;;;;;;;14.40;99.90;;;;;;5014203;28;20385;-77
2023/05/06 01:26:19;;;;;;;;;;;14.40;99.90;;;;;;5009766;28;20012;-76
2023/05/06 01:28:46;;;;;;;;;;;14.40;99.90;;;;;;5022405;28;19926;-76
2023/05/06 01:31:15;;;;;;;;;;;14.30;99.90;;;;;;5029725;28;19925;-76
2023/05/06 01:33:46;;;;;;;;;;;14.30;99.90;;;;;;5003370;28;19925;-76
2023/05/06 01:36:15;;;;;;;;;;;14.30;99.90;;;;;;5013768;28;19924;-76
2023/05/06 01:38:46;;;;;;;;;;;14.30;99.90;;;;;;5022295;28;20339;-76
2023/05/06 01:41:15;;;;;;;;;;;14.30;99.90;;;;;;5010878;28;19926;-76
2023/05/06 01:43:44;;;;;;;;;;;14.30;99.90;;;;;;5025598;28;19952;-76
2023/05/06 01:46:13;;;;;;;;;;;14.30;99.90;;;;;;5022708;28;20404;-76
2023/05/06 01:48:40;;;;;;;;;;;14.20;99.90;;;;;;5027996;28;19929;-76
2023/05/06 01:51:07;;;;;;;;;;;14.20;99.90;;;;;;5032269;28;19979;-75
2023/05/06 01:53:34;;;;;;;;;;;14.20;99.90;;;;;;5026038;28;20703;-75
2023/05/06 01:56:01;;;;;;;;;;;14.30;99.90;;;;;;5023112;28;19995;-74
2023/05/06 01:58:28;;;;;;;;;;;14.20;99.90;;;;;;5006533;28;20059;-76
2023/05/06 02:00:56;;;;;;;;;;;14.20;99.90;;;;;;5029903;28;21203;-76
2023/05/06 02:03:23;;;;;;;;;;;14.20;99.90;;;;;;5005568;28;19925;-76
2023/05/06 02:05:50;;;;;;;;;;;14.20;99.90;;;;;;5006339;28;19972;-76
2023/05/06 02:08:16;;;;;;;;;;;14.20;99.90;;;;;;5007078;28;20414;-76
2023/05/06 02:10:45;;;;;;;;;;;14.20;99.90;;;;;;5016774;28;20032;-76
2023/05/06 02:13:12;;;;;;;;;;;14.10;99.90;;;;;;5009124;28;19940;-76
2023/05/06 02:15:39;;;;;;;;;;;14.10;99.90;;;;;;5029432;28;19925;-75
2023/05/06 02:18:10;;;;;;;;;;;14.10;99.90;;;;;;5011108;28;19968;-76
2023/05/06 02:20:37;;;;;;;;;;;14.10;99.90;;;;;;5011002;28;19961;-76
2023/05/06 02:23:04;;;;;;;;;;;14.10;99.90;;;;;;5020330;28;19925;-75
2023/05/06 02:25:31;;;;;;;;;;;14.10;99.90;;;;;;5010882;28;20443;-73
2023/05/06 02:27:58;;;;;;;;;;;14.10;99.90;;;;;;5015669;28;20056;-76
2023/05/06 02:30:24;;;;;;;;;;;14.00;99.90;;;;;;5007018;28;19965;-75
2023/05/06 02:32:51;;;;;;;;;;;14.00;99.90;;;;;;5013702;28;19965;-75
2023/05/06 02:35:19;;;;;;;;;;;14.10;99.90;;;;;;5024367;28;19937;-76
2023/05/06 02:37:46;;;;;;;;;;;14.00;99.90;;;;;;5026424;28;19987;-75
2023/05/06 02:40:13;;;;;;;;;;;14.00;99.90;;;;;;5027555;28;19925;-76
2023/05/06 02:42:40;;;;;;;;;;;14.00;99.90;;;;;;5027354;28;19928;-75
2023/05/06 02:45:07;;;;;;;;;;;14.00;99.90;;;;;;5012898;28;19929;-76
2023/05/06 02:47:34;;;;;;;;;;;14.00;99.90;;;;;;5013636;28;19929;-76
2023/05/06 02:50:01;;;;;;;;;;;14.00;99.90;;;;;;5022938;28;20026;-76
2023/05/06 02:52:29;;;;;;;;;;;13.90;99.90;;;;;;5023560;28;20106;-75
2023/05/06 02:54:56;;;;;;;;;;;14.00;99.90;;;;;;5012375;28;19931;-76
2023/05/06 02:57:23;;;;;;;;;;;13.90;99.90;;;;;;5022369;28;19926;-76
2023/05/06 02:59:50;;;;;;;;;;;13.90;99.90;;;;;;5025766;28;19936;-75
2023/05/06 03:02:17;;;;;;;;;;;13.90;99.90;;;;;;5028813;28;20387;-76
2023/05/06 03:04:44;;;;;;;;;;;13.90;99.90;;;;;;5029636;28;20576;-76
2023/05/06 03:07:12;;;;;;;;;;;13.90;99.90;;;;;;5027758;28;19980;-75
2023/05/06 03:09:41;;;;;;;;;;;13.80;99.90;;;;;;5012004;28;19926;-76
2023/05/06 03:12:08;;;;;;;;;;;13.80;99.90;;;;;;5012861;28;20334;-75
2023/05/06 03:14:35;;;;;;;;;;;13.80;99.90;;;;;;5013527;28;19987;-75
2023/05/06 03:17:02;;;;;;;;;;;13.80;99.90;;;;;;5023326;28;19952;-76
2023/05/06 03:19:31;;;;;;;;;;;13.80;99.90;;;;;;5033881;28;19925;-76
2023/05/06 03:21:57;;;;;;;;;;;13.80;99.90;;;;;;5035555;28;19994;-76
2023/05/06 03:24:24;;;;;;;;;;;13.80;99.90;;;;;;5033891;28;19936;-76
2023/05/06 03:26:53;;;;;;;;;;;13.80;99.90;;;;;;5006740;28;19936;-76
2023/05/06 03:29:20;;;;;;;;;;;13.80;99.90;;;;;;5029002;28;20454;-76
2023/05/06 03:31:48;;;;;;;;;;;13.80;99.90;;;;;;5012565;28;19925;-76
2023/05/06 03:34:15;;;;;;;;;;;13.70;99.90;;;;;;5013312;28;19925;-75
2023/05/06 03:36:46;;;;;;;;;;;13.70;99.90;;;;;;5010965;28;19925;-76
2023/05/06 03:39:14;;;;;;;;;;;13.70;99.90;;;;;;5012835;28;20016;-76
2023/05/06 03:41:41;;;;;;;;;;;13.70;99.90;;;;;;5013289;28;20544;-75
2023/05/06 03:44:10;;;;;;;;;;;13.70;99.90;;;;;;5011431;28;19933;-76
2023/05/06 03:46:38;;;;;;;;;;;13.70;99.90;;;;;;5013046;28;20027;-76
2023/05/06 03:49:06;;;;;;;;;;;13.70;99.90;;;;;;5010071;28;19940;-76
2023/05/06 03:51:33;;;;;;;;;;;13.70;99.90;;;;;;5027766;28;19925;-76
2023/05/06 03:54:01;;;;;;;;;;;13.70;99.90;;;;;;5026492;28;20354;-75
2023/05/06 03:56:28;;;;;;;;;;;13.70;99.90;;;;;;5010529;28;19925;-76
2023/05/06 03:58:56;;;;;;;;;;;13.60;99.90;;;;;;5016914;28;19961;-76
2023/05/06 04:01:26;;;;;;;;;;;13.60;99.90;;;;;;5017473;28;19929;-75
2023/05/06 04:03:53;;;;;;;;;;;13.60;99.90;;;;;;5006990;28;19929;-75
2023/05/06 04:06:21;;;;;;;;;;;13.60;99.90;;;;;;5031842;28;19959;-78
2023/05/06 04:08:48;;;;;;;;;;;13.60;99.90;;;;;;5028686;28;19925;-76
2023/05/06 04:11:16;;;;;;;;;;;13.60;99.90;;;;;;5008571;28;19925;-75
2023/05/06 04:13:43;;;;;;;;;;;13.60;99.90;;;;;;5029326;28;20392;-76
2023/05/06 04:16:14;;;;;;;;;;;13.60;99.90;;;;;;5013574;28;20396;-77
2023/05/06 04:18:46;;;;;;;;;;;13.50;99.90;;;;;;5012114;28;20023;-76
2023/05/06 04:21:17;;;;;;;;;;;13.50;99.90;;;;;;5007246;28;19986;-76
2023/05/06 04:23:48;;;;;;;;;;;13.50;99.90;;;;;;5012914;28;19936;-76
2023/05/06 04:26:20;;;;;;;;;;;13.50;99.90;;;;;;5011247;28;19940;-75
2023/05/06 04:28:47;;;;;;;;;;;13.50;99.90;;;;;;5005260;28;20338;-75
2023/05/06 04:31:15;;;;;;;;;;;13.50;99.90;;;;;;5009146;28;19925;-76
2023/05/06 04:33:49;;;;;;;;;;;13.50;99.90;;;;;;5013321;28;20030;-75
2023/05/06 04:36:20;;;;;;;;;;;13.50;99.90;;;;;;5009890;28;19972;-76
2023/05/06 04:39:09;;;;;;;;;;;13.50;99.90;;;;;;5009748;28;21048;-76
2023/05/06 04:41:36;;;;;;;;;;;13.40;99.90;;;;;;5011676;28;19929;-76
2023/05/06 04:44:04;;;;;;;;;;;13.40;99.90;;;;;;5010872;28;19925;-74
2023/05/06 04:46:32;;;;;;;;;;;13.50;99.90;;;;;;5012229;28;19925;-76
2023/05/06 04:49:01;;;;;;;;;;;13.40;99.90;;;;;;5013912;28;19950;-76
2023/05/06 04:51:30;;;;;;;;;;;13.40;99.90;;;;;;5005876;28;20361;-76
2023/05/06 04:54:00;;;;;;;;;;;13.40;99.90;;;;;;5028090;28;19964;-75
2023/05/06 04:56:26;;;;;;;;;;;13.40;99.90;;;;;;5021548;28;19972;-76
2023/05/06 04:58:55;;;;;;;;;;;13.40;99.90;;;;;;5007699;28;20063;-75
2023/05/06 05:01:23;;;;;;;;;;;13.40;99.90;;;;;;5011631;28;20012;-76
2023/05/06 05:03:50;;;;;;;;;;;13.40;99.90;;;;;;5011500;28;19933;-77
2023/05/06 05:06:21;;;;;;;;;;;13.40;99.90;;;;;;5007999;28;19955;-76
2023/05/06 05:08:48;;;;;;;;;;;13.30;99.90;;;;;;5007422;28;19933;-76
2023/05/06 05:11:15;;;;;;;;;;;13.30;99.90;;;;;;5013381;28;20261;-76
2023/05/06 05:13:42;;;;;;;;;;;13.30;99.90;;;;;;5009699;28;19925;-76
2023/05/06 05:16:09;;;;;;;;;;;13.30;99.90;;;;;;5013555;28;19929;-76
2023/05/06 05:18:39;;;;;;;;;;;13.30;99.90;;;;;;5023168;28;19983;-75
2023/05/06 05:21:13;;;;;;;;;;;13.30;99.90;;;;;;5015801;28;19941;-76
2023/05/06 05:23:42;;;;;;;;;;;13.30;99.90;;;;;;5012412;28;20342;-76
2023/05/06 05:26:09;;;;;;;;;;;13.30;99.90;;;;;;5012642;28;20016;-76
2023/05/06 05:28:37;;;;;;;;;;;13.30;99.90;;;;;;5015842;28;19929;-76
2023/05/06 05:31:05;;;;;;;;;;;13.30;99.90;;;;;;5006949;28;20016;-76
2023/05/06 05:33:34;;;;;;;;;;;13.30;99.90;;;;;;5028247;28;20569;-76
2023/05/06 05:36:03;;;;;;;;;;;13.30;99.90;;;;;;5004984;28;20022;-76
2023/05/06 05:38:31;;;;;;;;;;;13.30;99.90;;;;;;5010914;28;20079;-75
2023/05/06 05:41:00;;;;;;;;;;;13.30;99.90;;;;;;5009907;28;19991;-76
2023/05/06 05:43:31;;;;;;;;;;;13.30;99.90;;;;;;5009987;28;20302;-75
2023/05/06 05:45:58;;;;;;;;;;;13.30;99.90;;;;;;5025068;28;19925;-75
2023/05/06 05:48:25;;;;;;;;;;;13.20;99.90;;;;;;5027831;28;20039;-76
2023/05/06 05:50:52;;;;;;;;;;;13.20;99.90;;;;;;5026916;28;19948;-76
2023/05/06 05:53:20;;;;;;;;;;;13.20;99.90;;;;;;5012999;28;19925;-76
2023/05/06 05:55:46;;;;;;;;;;;13.20;99.90;;;;;;5007150;28;20717;-76
2023/05/06 05:58:15;;;;;;;;;;;13.20;99.90;;;;;;5030258;28;19925;-75
2023/05/06 06:00:44;;;;;;;;;;;13.20;99.90;;;;;;5028090;28;19971;-75
2023/05/06 06:03:14;;;;;;;;;;;13.20;99.90;;;;;;5006086;28;20355;-75
2023/05/06 06:05:41;;;;;;;;;;;13.20;99.90;;;;;;5022848;28;19933;-75
2023/05/06 06:08:09;;;;;;;;;;;13.20;99.90;;;;;;5020856;28;19932;-75
2023/05/06 06:10:36;;;;;;;;;;;13.20;99.90;;;;;;5019661;28;20387;-75
2023/05/06 06:13:09;;;;;;;;;;;13.20;99.90;;;;;;4996729;28;19929;-77
2023/05/06 06:15:38;;;;;;;;;;;13.20;99.90;;;;;;5003175;28;19986;-75
2023/05/06 06:18:07;;;;;;;;;;;13.20;99.90;;;;;;5020278;28;19979;-75
2023/05/06 06:20:34;;;;;;;;;;;13.20;99.90;;;;;;5000175;28;19933;-74
2023/05/06 06:23:02;;;;;;;;;;;13.20;99.90;;;;;;5003290;28;19976;-74
2023/05/06 06:25:29;;;;;;;;;;;13.20;99.90;;;;;;5017146;28;20391;-75
2023/05/06 06:27:56;;;;;;;;;;;13.20;99.90;;;;;;5017930;22;19933;-79
2023/05/06 06:30:30;;;;;;;;;;;13.20;99.90;;;;;;4970717;28;20139;-80
2023/05/06 06:33:01;;;;;;;;;;;13.20;99.90;;;;;;4982902;28;19930;-81
2023/05/06 06:35:28;;;;;;;;;;;13.20;99.90;;;;;;4990174;28;20418;-81
2023/05/06 06:37:56;;;;;;;;;;;13.20;99.90;;;;;;4993289;28;19960;-81
2023/05/06 06:40:29;;;;;;;;;;;13.20;99.90;;;;;;5005012;28;20024;-81
2023/05/06 06:42:56;;;;;;;;;;;13.20;99.90;;;;;;4989389;28;19965;-81
2023/05/06 06:45:49;;;;;;;;;;;13.20;99.90;;;;;;5004547;28;20384;-82
2023/05/06 06:48:18;;;;;;;;;;;13.20;99.90;;;;;;5004180;28;19952;-81
2023/05/06 06:50:45;;;;;;;;;;;13.20;99.90;;;;;;4992789;28;19940;-78
2023/05/06 06:53:12;;;;;;;;;;;13.20;99.90;;;;;;5004832;28;20370;-79
2023/05/06 06:55:42;;;;;;;;;;;13.20;99.90;;;;;;4987941;28;19934;-80
2023/05/06 06:58:09;;;;;;;;;;;13.20;99.90;;;;;;5010107;28;19937;-80
2023/05/06 07:00:39;;;;;;;;;;;13.20;99.90;;;;;;5006526;28;19956;-80
2023/05/06 07:03:06;;;;;;;;;;;13.20;99.90;;;;;;5011441;28;19936;-81
2023/05/06 07:05:34;;;;;;;;;;;13.20;99.90;;;;;;5013815;28;20327;-80
2023/05/06 07:08:02;;;;;;;;;;;13.30;99.90;;;;;;4985466;28;19925;-81
2023/05/06 07:10:29;;;;;;;;;;;13.30;99.90;;;;;;4993628;28;19925;-81
2023/05/06 07:12:57;;;;;;;;;;;13.30;99.90;;;;;;5011021;28;19964;-82
2023/05/06 07:15:23;;;;;;;;;;;13.30;99.90;;;;;;4991384;28;19940;-81
2023/05/06 07:17:51;;;;;;;;;;;13.30;99.90;;;;;;5008895;28;19933;-79
2023/05/06 07:20:18;;;;;;;;;;;13.30;99.90;;;;;;4991308;28;20020;-80
2023/05/06 07:22:46;;;;;;;;;;;13.30;99.90;;;;;;5008567;28;19932;-81
2023/05/06 07:25:15;;;;;;;;;;;13.30;99.90;;;;;;5010999;28;20040;-81
2023/05/06 07:27:42;;;;;;;;;;;13.30;99.90;;;;;;5013413;28;19925;-81
2023/05/06 07:30:09;;;;;;;;;;;13.30;99.90;;;;;;5016815;28;19971;-81
2023/05/06 07:32:40;;;;;;;;;;;13.40;99.90;;;;;;5012006;28;20006;-81
2023/05/06 07:35:08;;;;;;;;;;;13.40;99.90;;;;;;4995917;28;19995;-81
2023/05/06 07:37:38;;;;;;;;;;;13.40;99.90;;;;;;5011031;28;20018;-81
2023/05/06 07:40:07;;;;;;;;;;;13.40;99.90;;;;;;4993706;28;19961;-79
2023/05/06 07:42:38;;;;;;;;;;;13.40;99.90;;;;;;5013906;28;20000;-81
2023/05/06 07:45:05;;;;;;;;;;;13.40;99.90;;;;;;4995230;28;19941;-82
2023/05/06 07:47:32;;;;;;;;;;;13.40;99.90;;;;;;4992964;28;19926;-80
2023/05/06 07:49:59;;;;;;;;;;;13.40;99.90;;;;;;5004766;28;19930;-80
2023/05/06 07:52:27;;;;;;;;;;;13.50;99.90;;;;;;5000705;28;20296;-80
2023/05/06 07:54:53;;;;;;;;;;;13.50;99.90;;;;;;5004923;28;19929;-80
2023/05/06 07:57:22;;;;;;;;;;;13.50;99.90;;;;;;4991367;28;19933;-80
2023/05/06 07:59:52;;;;;;;;;;;13.50;99.90;;;;;;4989025;28;20012;-78
2023/05/06 08:02:19;;;;;;;;;;;13.50;99.90;;;;;;5002830;28;19956;-78
2023/05/06 08:04:47;;;;;;;;;;;13.50;99.90;;;;;;5003982;28;19930;-77
2023/05/06 08:07:14;;;;;;;;;;;13.60;99.90;;;;;;5013083;28;20427;-78
2023/05/06 08:09:41;;;;;;;;;;;13.60;99.90;;;;;;5010269;28;19932;-77
2023/05/06 08:12:09;;;;;;;;;;;13.60;99.90;;;;;;4990999;28;19949;-79
2023/05/06 08:14:37;;;;;;;;;;;13.60;99.90;;;;;;5004839;28;19933;-81
2023/05/06 08:17:04;;;;;;;;;;;13.60;99.90;;;;;;5002282;28;19929;-77
2023/05/06 08:19:30;;;;;;;;;;;13.60;99.90;;;;;;4991515;28;19991;-78
2023/05/06 08:21:57;;;;;;;;;;;13.60;99.90;;;;;;5011708;28;19932;-78
2023/05/06 08:24:24;;;;;;;;;;;13.60;99.90;;;;;;5011377;28;20343;-77
2023/05/06 08:26:51;;;;;;;;;;;13.60;99.90;;;;;;5006604;28;19930;-77
2023/05/06 08:29:18;;;;;;;;;;;13.60;99.90;;;;;;5003462;28;20489;-78
2023/05/06 08:31:46;;;;;;;;;;;13.70;99.90;;;;;;4993898;28;19933;-78
2023/05/06 08:34:17;;;;;;;;;;;13.70;99.90;;;;;;5005819;28;20008;-78
2023/05/06 08:36:48;;;;;;;;;;;13.70;99.90;;;;;;4990036;28;19980;-78
2023/05/06 08:39:14;;;;;;;;;;;13.70;99.90;;;;;;5005918;28;19925;-78
2023/05/06 08:41:45;;;;;;;;;;;13.70;99.90;;;;;;4994565;28;19934;-80
2023/05/06 08:44:15;;;;;;;;;;;13.70;99.90;;;;;;5003389;28;19929;-79
2023/05/06 08:46:52;;;;;;;;;;;13.70;99.90;;;;;;5010598;28;20307;-79
2023/05/06 08:49:19;;;;;;;;;;;13.70;99.90;;;;;;5008190;28;19988;-79
2023/05/06 08:51:51;;;;;;;;;;;13.80;99.90;;;;;;5005416;28;20415;-79
2023/05/06 08:54:18;;;;;;;;;;;13.80;99.90;;;;;;4985690;28;20388;-78
2023/05/06 08:56:51;;;;;;;;;;;13.80;99.90;;;;;;5009714;28;19925;-79
2023/05/06 08:59:20;;;;;;;;;;;13.90;99.90;;;;;;5008897;28;20016;-81
2023/05/06 09:01:48;;;;;;;;;;;13.90;99.90;;;;;;5013750;28;19968;-79
2023/05/06 09:04:17;;;;;;;;;;;13.90;99.90;;;;;;4988088;28;20342;-80
2023/05/06 09:06:45;;;;;;;;;;;13.90;99.90;;;;;;4997205;28;20284;-81
2023/05/06 09:09:13;;;;;;;;;;;13.90;99.90;;;;;;4996352;28;19933;-80
2023/05/06 09:11:43;;;;;;;;;;;13.90;99.90;;;;;;5011543;28;19975;-81
2023/05/06 09:14:14;;;;;;;;;;;13.90;99.90;;;;;;5014370;28;19925;-80
2023/05/06 09:16:49;;;;;;;;;;;13.90;99.90;;;;;;5012177;28;19933;-81
2023/05/06 09:19:18;;;;;;;;;;;14.00;99.90;;;;;;4994335;28;19996;-80
2023/05/06 09:21:46;;;;;;;;;;;14.00;99.90;;;;;;5000641;28;19926;-81
2023/05/06 09:24:14;;;;;;;;;;;14.00;99.90;;;;;;4993858;28;19926;-80
2023/05/06 09:26:41;;;;;;;;;;;14.00;99.90;;;;;;5008520;28;19926;-81
2023/05/06 09:29:11;;;;;;;;;;;14.00;99.90;;;;;;4996272;28;19926;-81
2023/05/06 09:31:41;;;;;;;;;;;14.10;99.90;;;;;;4993306;28;20306;-81
2023/05/06 09:34:21;;;;;;;;;;;14.10;99.90;;;;;;5016648;28;19926;-81
2023/05/06 09:36:48;;;;;;;;;;;14.10;99.90;;;;;;5019182;28;20323;-80
2023/05/06 09:39:16;;;;;;;;;;;14.10;99.90;;;;;;5013169;28;19929;-81
2023/05/06 09:41:52;;;;;;;;;;;14.10;99.90;;;;;;5004529;28;20391;-80
2023/05/06 09:44:22;;;;;;;;;;;14.20;99.90;;;;;;4999447;28;20347;-81
2023/05/06 09:46:49;;;;;;;;;;;14.20;99.90;;;;;;5017092;28;19959;-79
2023/05/06 09:49:20;;;;;;;;;;;14.20;99.90;;;;;;4999424;28;21328;-81
2023/05/06 09:51:50;;;;;;;;;;;14.20;99.90;;;;;;4996344;28;19926;-80
2023/05/06 09:54:17;;;;;;;;;;;14.20;99.90;;;;;;4996003;28;19926;-81
2023/05/06 09:56:46;;;;;;;;;;;14.30;99.90;;;;;;5011126;28;19929;-82
2023/05/06 09:59:17;;;;;;;;;;;14.40;99.90;;;;;;5018657;28;19925;-82
2023/05/06 10:01:47;;;;;;;;;;;14.40;99.90;;;;;;5023171;28;20088;-81
2023/05/06 10:04:15;;;;;;;;;;;14.50;99.90;;;;;;5013592;28;19922;-82
2023/05/06 10:06:49;;;;;;;;;;;14.50;99.90;;;;;;5029627;28;19937;-82
2023/05/06 10:09:17;;;;;;;;;;;14.50;99.90;;;;;;5029643;28;19913;-81
2023/05/06 10:11:44;;;;;;;;;;;14.50;99.90;;;;;;5031207;28;19925;-82
2023/05/06 10:14:11;;;;;;;;;;;14.50;99.90;;;;;;5028148;28;19925;-84
2023/05/06 10:16:39;;;;;;;;;;;14.50;99.90;;;;;;5031943;28;19925;-82
2023/05/06 10:19:06;;;;;;;;;;;14.50;99.90;;;;;;5032781;28;19922;-82
2023/05/06 10:21:35;;;;;;;;;;;14.50;99.90;;;;;;5027719;28;19926;-81
2023/05/06 10:24:07;;;;;;;;;;;14.60;99.90;;;;;;5032694;28;19925;-82
2023/05/06 10:26:36;;;;;;;;;;;14.60;99.90;;;;;;5011594;28;19932;-82
2023/05/06 10:29:04;;;;;;;;;;;14.60;99.90;;;;;;5025956;28;19925;-83
2023/05/06 10:31:32;;;;;;;;;;;14.60;99.90;;;;;;4994280;28;20387;-82
2023/05/06 10:34:01;;;;;;;;;;;14.70;99.90;;;;;;5011980;28;20475;-81
2023/05/06 10:36:30;;;;;;;;;;;14.80;99.90;;;;;;5007307;28;19934;-80
2023/05/06 10:38:59;;;;;;;;;;;14.90;99.90;;;;;;5010221;28;19932;-80
2023/05/06 10:41:28;;;;;;;;;;;15.00;99.90;;;;;;4993302;28;20388;-81
2023/05/06 10:43:56;;;;;;;;;;;15.00;99.90;;;;;;5012692;28;19930;-81
2023/05/06 10:46:24;;;;;;;;;;;15.10;99.90;;;;;;5010113;28;20451;-81
2023/05/06 10:49:10;;;;;;;;;;;15.10;99.90;;;;;;5004158;28;19926;-79
2023/05/06 10:51:41;;;;;;;;;;;15.10;99.90;;;;;;5004330;28;19956;-80
2023/05/06 10:54:09;;;;;;;;;;;15.10;99.90;;;;;;5010514;28;19926;-81
2023/05/06 10:56:38;;;;;;;;;;;15.10;99.90;;;;;;5011372;28;19933;-81
2023/05/06 10:59:07;;;;;;;;;;;15.10;99.90;;;;;;5006602;28;19969;-84
2023/05/06 11:01:34;;;;;;;;;;;15.10;99.90;;;;;;5011806;28;19937;-83
2023/05/06 11:04:05;;;;;;;;;;;15.20;99.90;;;;;;4988485;28;19968;-80
2023/05/06 11:06:33;;;;;;;;;;;15.20;99.90;;;;;;5006595;28;20368;-81
2023/05/06 11:09:00;;;;;;;;;;;15.20;99.90;;;;;;4988629;28;19925;-81
2023/05/06 11:11:50;;;;;;;;;;;15.30;99.90;;;;;;5006823;28;19957;-80
2023/05/06 11:14:24;;;;;;;;;;;15.40;99.90;;;;;;4991662;28;19934;-81
2023/05/06 11:16:52;;;;;;;;;;;15.50;99.90;;;;;;5005781;28;19965;-81
2023/05/06 11:19:21;;;;;;;;;;;15.60;99.90;;;;;;5011503;28;19925;-81
2023/05/06 11:21:48;;;;;;;;;;;15.70;99.90;;;;;;4995776;28;19925;-81
2023/05/06 11:24:25;;;;;;;;;;;15.70;99.90;;;;;;5002348;28;19933;-81
2023/05/06 11:26:54;;;;;;;;;;;15.70;99.90;;;;;;5010736;28;19965;-80
2023/05/06 11:29:21;;;;;;;;;;;15.70;99.90;;;;;;5012786;28;19926;-83
2023/05/06 11:31:48;;;;;;;;;;;15.70;99.90;;;;;;5012822;28;19983;-83
2023/05/06 11:34:26;;;;;;;;;;;15.70;99.90;;;;;;5008201;28;19933;-83
2023/05/06 11:36:55;;;;;;;;;;;15.70;99.90;;;;;;5012089;28;19926;-83
2023/05/06 11:39:22;;;;;;;;;;;15.70;99.90;;;;;;5015861;28;19929;-83
2023/05/06 11:41:50;;;;;;;;;;;15.70;99.90;;;;;;5013067;28;19980;-83
2023/05/06 11:44:31;;;;;;;;;;;15.70;99.90;;;;;;5013671;28;19961;-83
2023/05/06 11:47:01;;;;;;;;;;;15.70;99.90;;;;;;5014583;28;20395;-82
2023/05/06 11:49:28;;;;;;;;;;;15.70;99.90;;;;;;5007083;28;19926;-82
2023/05/06 11:51:55;;;;;;;;;;;15.80;99.90;;;;;;5010269;28;20365;-84
2023/05/06 11:54:22;;;;;;;;;;;15.80;99.90;;;;;;5001710;28;19929;-81
2023/05/06 11:56:50;;;;;;;;;;;15.80;99.90;;;;;;5020556;28;19988;-80
2023/05/06 11:59:18;;;;;;;;;;;15.90;99.90;;;;;;4991676;28;19926;-82
2023/05/06 12:01:46;;;;;;;;;;;15.90;99.90;;;;;;4996423;28;20033;-80
2023/05/06 12:04:13;;;;;;;;;;;15.90;99.90;;;;;;4993060;28;19965;-80
2023/05/06 12:06:40;;;;;;;;;;;15.90;99.90;;;;;;5008382;28;19933;-84
2023/05/06 12:09:09;;;;;;;;;;;16.00;99.90;;;;;;5014181;28;19925;-81
2023/05/06 12:11:37;;;;;;;;;;;15.90;99.90;;;;;;5016171;28;20351;-81
2023/05/06 12:14:05;;;;;;;;;;;15.90;99.90;;;;;;5000661;28;19979;-80
2023/05/06 12:16:32;;;;;;;;;;;15.90;99.90;;;;;;5004483;28;19960;-80
2023/05/06 12:19:01;;;;;;;;;;;16.00;99.90;;;;;;5002129;28;19930;-81
2023/05/06 12:21:28;;;;;;;;;;;16.00;99.90;;;;;;5013595;28;19957;-83
2023/05/06 12:23:57;;;;;;;;;;;16.00;99.90;;;;;;5000398;28;20479;-81
2023/05/06 12:26:26;;;;;;;;;;;16.00;99.90;;;;;;5013234;28;19995;-82
2023/05/06 12:29:04;;;;;;;;;;;16.00;99.90;;;;;;5001259;28;20427;-83
2023/05/06 12:31:31;;;;;;;;;;;16.10;99.90;;;;;;5011885;28;19925;-83
2023/05/06 12:33:58;;;;;;;;;;;16.10;99.90;;;;;;5010755;28;19934;-84
2023/05/06 12:36:26;;;;;;;;;;;16.20;99.90;;;;;;4997103;28;19929;-82
2023/05/06 12:38:53;;;;;;;;;;;16.20;99.90;;;;;;5013674;28;20019;-82
2023/05/06 12:41:23;;;;;;;;;;;16.30;99.90;;;;;;5010705;28;20391;-82
2023/05/06 12:43:51;;;;;;;;;;;16.30;99.90;;;;;;4995293;28;19961;-81
2023/05/06 12:46:18;;;;;;;;;;;16.30;99.90;;;;;;5014144;28;19980;-83
2023/05/06 12:48:58;;;;;;;;;;;16.30;99.90;;;;;;4990572;28;19956;-80
2023/05/06 12:51:27;;;;;;;;;;;16.30;99.90;;;;;;5009253;28;19913;-80
2023/05/06 12:53:54;;;;;;;;;;;16.70;99.90;;;;;;4993702;28;19929;-83
2023/05/06 12:56:21;;;;;;;;;;;16.90;99.90;;;;;;5001635;28;19929;-84
2023/05/06 12:59:01;;;;;;;;;;;17.20;99.90;;;;;;4994530;28;19929;-84
2023/05/06 13:01:28;;;;;;;;;;;17.50;99.90;;;;;;5000249;28;19925;-84
2023/05/06 13:03:56;;;;;;;;;;;17.70;99.90;;;;;;5001178;28;20281;-86
2023/05/06 13:06:25;;;;;;;;;;;17.70;99.90;;;;;;4989984;28;19925;-88
2023/05/06 13:08:52;;;;;;;;;;;;;;;;;;5007057;28;19938;-84
2023/05/06 13:11:21;;;;;;;;;;;18.40;99.90;;;;;;5002750;28;19968;-90
2023/05/06 13:13:48;;;;;;;;;;;18.60;99.90;;;;;;5007300;28;19926;-87
2023/05/06 13:16:14;;;;;;;;;;;18.60;99.90;;;;;;5014229;28;19948;-83
2023/05/06 13:18:41;;;;;;;;;;;18.60;99.90;;;;;;5013865;28;19944;-83
2023/05/06 13:21:08;;;;;;;;;;;18.60;99.90;;;;;;4991086;28;19925;-78
2023/05/06 13:23:36;;;;;;;;;;;18.50;99.90;;;;;;5005704;28;20614;-80
2023/05/06 13:26:04;;;;;;;;;;;18.60;99.90;;;;;;5012384;28;19926;-79
2023/05/06 13:28:35;;;;;;;;;;;18.60;99.90;;;;;;5009862;28;19956;-80
2023/05/06 13:31:02;;;;;;;;;;;18.70;99.90;;;;;;4996499;28;20439;-79
2023/05/06 13:33:29;;;;;;;;;;;18.80;99.90;;;;;;5010506;28;19956;-79
2023/05/06 13:35:56;;;;;;;;;;;18.90;99.90;;;;;;4994798;28;20592;-79
2023/05/06 13:38:23;;;;;;;;;;;18.80;99.90;;;;;;5011374;28;19947;-79
2023/05/06 13:40:50;;;;;;;;;;;18.80;99.90;;;;;;5009109;28;19925;-81
2023/05/06 13:43:17;;;;;;;;;;;18.60;99.90;;;;;;4997996;28;19934;-81
2023/05/06 13:45:46;;;;;;;;;;;18.60;99.90;;;;;;4994676;28;19997;-81
2023/05/06 13:48:13;;;;;;;;;;;18.60;99.90;;;;;;4991909;28;19926;-80
2023/05/06 13:50:41;;;;;;;;;;;18.80;99.90;;;;;;4996344;28;19920;-80
2023/05/06 13:53:08;;;;;;;;;;;18.90;99.90;;;;;;4993432;28;19991;-80
2023/05/06 13:55:35;;;;;;;;;;;19.00;99.90;;;;;;4995666;28;20023;-82
2023/05/06 13:58:02;;;;;;;;;;;;;;;;;;4983208;28;20716;-84
2023/05/06 14:00:29;;;;;;;;;;;19.20;99.90;;;;;;5004413;28;19955;-81
2023/05/06 14:02:57;;;;;;;;;;;19.10;99.90;;;;;;5002453;28;20016;-80
2023/05/06 14:05:24;;;;;;;;;;;19.10;99.90;;;;;;4999694;28;19933;-80
2023/05/06 14:07:51;;;;;;;;;;;19.00;99.90;;;;;;4988090;28;19932;-80
2023/05/06 14:10:19;;;;;;;;;;;18.90;99.90;;;;;;5003466;28;20343;-81
2023/05/06 14:12:46;;;;;;;;;;;18.90;99.90;;;;;;4986637;28;20041;-82
2023/05/06 14:15:13;;;;;;;;;;;18.90;99.90;;;;;;4997009;28;19933;-81
2023/05/06 14:17:40;;;;;;;;;;;18.90;99.90;;;;;;4983936;28;19961;-80
2023/05/06 14:20:09;;;;;;;;;;;18.80;99.90;;;;;;4988605;28;20020;-81
2023/05/06 14:22:36;;;;;;;;;;;18.90;99.90;;;;;;5002540;28;20017;-81
2023/05/06 14:25:03;;;;;;;;;;;19.00;99.90;;;;;;5008379;28;19949;-82
2023/05/06 14:27:30;;;;;;;;;;;19.20;99.90;;;;;;4973762;28;20010;-80